Date,TemperatureHighF,TemperatureAvgF,TemperatureLowF,DewpointHighF,DewpointAvgF,DewpointLowF,HumidityHigh,HumidityAvg,HumidityLow,PressureMaxIn,PressureMinIn,WindSpeedMaxMPH,WindSpeedAvgMPH,GustSpeedMaxMPH,PrecipitationSumIn
2013-1-1,29,21,9,23,14,2,82,73,62,0.00,40.00,24,11,37,0.00
2013-1-2,27,23,19,20,15,12,79,73,65,0.00,40.00,22,16,37,0.00
2013-1-3,33,23,12,13,7,5,75,52,32,0.00,40.00,16,10,24,0.00
2013-1-4,35,28,20,17,8,2,56,42,32,0.00,40.00,21,7,30,0.00
2013-1-5,32,26,17,19,14,9,69,61,52,0.00,40.00,25,14,37,0.00
2013-1-6,36,24,9,18,11,2,77,58,42,0.00,40.00,15,6,20,0.00
2013-1-7,37,29,19,21,17,12,78,59,49,0.00,40.00,11,6,17,0.00
2013-1-8,38,33,23,31,25,14,89,74,53,0.00,40.00,16,12,28,0.02
2013-1-9,43,30,16,28,19,10,80,65,46,0.00,40.00,8,3,12,0.01
2013-1-10,42,33,23,27,23,19,90,69,52,0.00,40.00,13,5,22,0.00
2013-1-11,23,12,2,19,5,-7,85,73,64,0.00,40.00,23,14,34,0.00
2013-1-12,6,2,-1,-7,-9,-12,64,57,50,0.00,40.00,24,12,35,0.00
2013-1-13,9,4,0,-2,-6,-11,68,62,52,0.00,40.00,15,8,22,0.00
2013-1-14,17,10,2,7,0,-6,70,63,51,0.00,40.00,9,5,14,0.00
2013-1-15,37,28,13,29,19,-2,86,70,51,0.00,40.00,24,15,37,0.00
2013-1-16,39,36,34,26,24,22,72,62,56,0.00,40.00,28,20,40,0.01
2013-1-17,40,35,25,26,22,19,85,61,48,0.00,40.00,16,8,22,0.00
2013-1-18,44,39,34,23,20,17,56,47,40,0.00,40.00,19,13,29,0.00
2013-1-19,36,22,10,24,12,1,72,64,56,0.00,40.00,20,11,33,0.00
2013-1-20,15,5,-7,7,-7,-22,70,57,45,0.00,40.00,16,9,23,0.00
2013-1-21,11,4,-5,1,-10,-20,68,52,43,0.00,40.00,10,5,18,0.00
2013-1-22,25,16,9,12,6,0,71,64,54,0.00,40.00,13,5,21,0.00
2013-1-23,13,10,5,4,-2,-5,71,60,51,0.00,40.00,14,7,22,0.00
2013-1-24,38,22,8,23,10,-2,70,61,46,0.00,40.00,25,13,34,0.00
2013-1-25,42,31,21,23,18,11,75,59,40,0.00,40.00,18,4,25,0.00
2013-1-26,53,36,28,28,25,21,83,66,37,0.00,40.00,5,1,10,0.00
2013-1-27,36,31,26,30,26,21,90,81,69,0.00,40.00,16,6,23,0.00
2013-1-28,35,30,24,28,24,19,90,78,62,0.00,40.00,10,6,16,0.00
2013-1-29,29,17,-7,19,7,-18,81,65,53,0.00,40.00,18,10,30,0.00
2013-1-30,10,2,-7,-4,-10,-18,64,59,50,0.00,40.00,11,6,18,0.00
2013-1-31,14,-2,-17,4,-16,-30,64,50,41,0.00,40.00,12,8,27,0.00